createdAt,value
2019-03-22T00:00:12.296Z,45.60
2019-03-22T00:02:40.982Z,45.30
2019-03-22T00:05:10.230Z,45.70
2019-03-22T00:07:38.926Z,45.60
2019-03-22T00:10:07.609Z,45.60
2019-03-22T00:12:36.302Z,45.40
2019-03-22T00:15:07.086Z,45.90
2019-03-22T00:17:35.766Z,46.10
2019-03-22T00:20:08.821Z,46.00
2019-03-22T00:22:37.511Z,46.40
2019-03-22T00:25:07.816Z,46.20
2019-03-22T00:27:36.502Z,46.30
2019-03-22T00:30:08.147Z,46.20
2019-03-22T00:32:36.887Z,46.30
2019-03-22T00:35:07.511Z,46.20
2019-03-22T00:37:36.195Z,46.00
2019-03-22T00:40:09.363Z,46.60
2019-03-22T00:42:38.093Z,46.50
2019-03-22T00:45:08.254Z,46.60
2019-03-22T00:47:36.955Z,46.60
2019-03-22T00:50:06.940Z,46.40
2019-03-22T00:52:35.653Z,46.40
2019-03-22T00:55:04.900Z,46.50
2019-03-22T00:57:33.625Z,46.50
2019-03-22T01:00:02.291Z,46.90
2019-03-22T01:02:30.994Z,46.60
2019-03-22T01:04:59.693Z,46.90
2019-03-22T01:07:28.409Z,46.90
2019-03-22T01:09:57.075Z,46.60
2019-03-22T01:12:26.112Z,46.90
2019-03-22T01:14:54.779Z,46.90
2019-03-22T01:17:23.507Z,47.00
2019-03-22T01:19:52.217Z,47.00
2019-03-22T01:22:20.891Z,47.10
2019-03-22T01:24:49.611Z,47.00
2019-03-22T01:27:18.283Z,47.20
2019-03-22T01:29:47.010Z,47.20
2019-03-22T01:32:15.732Z,47.50
2019-03-22T01:34:44.454Z,47.30
2019-03-22T01:37:13.177Z,47.50
2019-03-22T01:39:41.852Z,47.50
2019-03-22T01:42:10.591Z,47.10
2019-03-22T01:44:39.261Z,47.00
2019-03-22T01:47:07.955Z,47.10
2019-03-22T01:49:36.745Z,47.10
2019-03-22T01:52:05.438Z,47.00
2019-03-22T01:54:34.280Z,46.90
2019-03-22T01:57:02.996Z,47.20
2019-03-22T01:59:31.724Z,47.50
2019-03-22T02:02:00.439Z,47.40
2019-03-22T02:04:29.123Z,47.60
2019-03-22T02:06:57.856Z,47.50
2019-03-22T02:09:26.538Z,47.50
2019-03-22T02:11:55.251Z,47.40
2019-03-22T02:14:24.021Z,47.50
2019-03-22T02:16:52.782Z,47.40
2019-03-22T02:19:21.476Z,47.60
2019-03-22T02:21:50.442Z,47.60
2019-03-22T02:24:19.102Z,48.10
2019-03-22T02:26:47.847Z,47.70
2019-03-22T02:29:16.537Z,47.90
2019-03-22T02:31:45.320Z,48.20
2019-03-22T02:34:13.991Z,48.50
2019-03-22T02:36:42.704Z,48.40
2019-03-22T02:39:11.456Z,48.30
2019-03-22T02:41:40.502Z,48.40
2019-03-22T02:44:09.227Z,48.60
2019-03-22T02:46:38.019Z,48.30
2019-03-22T02:49:06.752Z,48.40
2019-03-22T02:51:35.658Z,48.40
2019-03-22T02:54:04.811Z,48.40
2019-03-22T02:56:33.525Z,48.30
2019-03-22T02:59:02.371Z,48.40
2019-03-22T03:01:31.249Z,48.30
2019-03-22T03:03:59.924Z,48.50
2019-03-22T03:06:28.623Z,48.30
2019-03-22T03:08:57.667Z,48.40
2019-03-22T03:11:38.993Z,48.30
2019-03-22T03:14:07.912Z,48.40
2019-03-22T03:16:36.597Z,48.30
2019-03-22T03:19:05.585Z,48.30
2019-03-22T03:21:34.316Z,48.30
2019-03-22T03:24:02.981Z,48.40
2019-03-22T03:26:31.740Z,48.10
2019-03-22T03:29:00.454Z,48.20
2019-03-22T03:31:29.197Z,48.10
2019-03-22T03:33:58.036Z,47.90
2019-03-22T03:36:26.965Z,48.70
2019-03-22T03:38:55.712Z,48.00
2019-03-22T03:41:24.459Z,47.90
2019-03-22T03:43:53.132Z,48.30
2019-03-22T03:46:21.925Z,48.20
2019-03-22T03:48:50.645Z,48.00
2019-03-22T03:51:19.356Z,48.10
2019-03-22T03:53:48.264Z,48.10
2019-03-22T03:56:16.982Z,48.00
2019-03-22T03:58:52.126Z,47.90
2019-03-22T04:01:16.255Z,48.30
2019-03-22T04:03:45.031Z,48.60
2019-03-22T04:06:13.692Z,48.50
2019-03-22T04:08:42.367Z,48.40
2019-03-22T04:11:11.088Z,48.50
2019-03-22T04:13:39.848Z,48.70
2019-03-22T04:16:08.547Z,49.10
2019-03-22T04:18:37.435Z,49.00
2019-03-22T04:21:06.151Z,48.60
2019-03-22T04:23:34.863Z,48.60
2019-03-22T04:26:03.728Z,48.70
2019-03-22T04:28:32.406Z,48.70
2019-03-22T04:31:01.124Z,48.50
2019-03-22T04:33:29.823Z,48.50
2019-03-22T04:35:58.520Z,48.50
2019-03-22T04:38:27.224Z,48.30
2019-03-22T04:40:56.024Z,48.40
2019-03-22T04:43:24.707Z,48.50
2019-03-22T04:45:54.824Z,48.70
2019-03-22T04:48:26.153Z,48.60
2019-03-22T04:50:57.939Z,48.50
2019-03-22T04:53:29.427Z,48.40
2019-03-22T04:56:01.095Z,48.90
2019-03-22T04:58:31.460Z,48.90
2019-03-22T05:01:00.831Z,49.00
2019-03-22T05:03:30.531Z,49.30
2019-03-22T05:06:01.735Z,49.30
2019-03-22T05:08:33.555Z,49.30
2019-03-22T05:11:04.159Z,49.20
2019-03-22T05:13:34.863Z,49.30
2019-03-22T05:16:05.235Z,49.30
2019-03-22T05:18:35.151Z,49.40
2019-03-22T05:21:05.031Z,49.20
2019-03-22T05:23:33.920Z,49.20
2019-03-22T05:26:03.194Z,49.80
2019-03-22T05:28:32.524Z,49.30
2019-03-22T05:31:09.686Z,49.00
2019-03-22T05:33:38.391Z,49.10
2019-03-22T05:36:07.115Z,49.00
2019-03-22T05:38:35.852Z,49.30
2019-03-22T05:41:04.583Z,49.40
2019-03-22T05:43:33.263Z,49.60
2019-03-22T05:46:02.117Z,49.20
2019-03-22T05:48:30.854Z,49.40
2019-03-22T05:50:59.542Z,49.20
2019-03-22T05:53:28.238Z,49.50
2019-03-22T05:55:56.894Z,49.20
2019-03-22T05:58:25.611Z,49.30
2019-03-22T06:00:54.282Z,49.40
2019-03-22T06:03:22.985Z,49.70
2019-03-22T06:05:51.682Z,49.70
2019-03-22T06:08:20.363Z,49.70
2019-03-22T06:10:49.084Z,49.90
2019-03-22T06:13:18.271Z,49.80
2019-03-22T06:15:46.931Z,50.20
2019-03-22T06:18:15.639Z,50.30
2019-03-22T06:20:44.326Z,50.20
2019-03-22T06:23:13.127Z,50.50
2019-03-22T06:25:41.801Z,50.40
2019-03-22T06:28:10.516Z,50.10
2019-03-22T06:30:39.199Z,50.60
2019-03-22T06:33:07.889Z,50.50
2019-03-22T06:35:36.615Z,50.40
2019-03-22T06:38:05.290Z,50.50
2019-03-22T06:40:33.973Z,50.60
2019-03-22T06:43:02.690Z,50.40
2019-03-22T06:45:31.397Z,50.60
2019-03-22T06:48:00.104Z,50.70
2019-03-22T06:50:28.780Z,50.80
2019-03-22T06:52:57.488Z,51.00
2019-03-22T06:55:26.173Z,50.90
2019-03-22T06:57:54.885Z,51.00
2019-03-22T07:00:23.543Z,51.00
2019-03-22T07:02:52.407Z,51.20
2019-03-22T07:05:21.084Z,51.00
2019-03-22T07:07:49.826Z,51.00
2019-03-22T07:10:18.519Z,51.20
2019-03-22T07:12:47.255Z,51.00
2019-03-22T07:15:15.939Z,51.30
2019-03-22T07:17:44.652Z,51.90
2019-03-22T07:20:13.537Z,51.10
2019-03-22T07:22:42.218Z,50.90
2019-03-22T07:25:11.091Z,51.00
2019-03-22T07:27:39.884Z,50.90
2019-03-22T07:30:18.473Z,50.80
2019-03-22T07:32:41.976Z,50.90
2019-03-22T07:35:10.772Z,50.70
2019-03-22T07:37:39.460Z,50.50
2019-03-22T07:40:12.402Z,50.40
2019-03-22T07:42:44.425Z,50.60
2019-03-22T07:45:13.721Z,50.00
2019-03-22T07:47:42.411Z,50.10
2019-03-22T07:50:15.130Z,50.20
2019-03-22T07:52:43.937Z,50.30
2019-03-22T07:55:14.307Z,50.00
2019-03-22T07:57:43.027Z,49.70
2019-03-22T08:00:13.347Z,49.60
2019-03-22T08:02:43.175Z,49.80
2019-03-22T08:05:13.215Z,49.90
2019-03-22T08:07:43.159Z,49.80
2019-03-22T08:10:13.404Z,50.00
2019-03-22T08:12:42.553Z,50.10
2019-03-22T08:15:12.648Z,50.10
2019-03-22T08:17:42.667Z,50.20
2019-03-22T08:20:12.071Z,50.00
2019-03-22T08:22:40.788Z,49.80
2019-03-22T08:25:09.576Z,49.80
2019-03-22T08:27:38.239Z,49.40
2019-03-22T08:30:08.462Z,49.50
2019-03-22T08:32:37.134Z,49.90
2019-03-22T08:35:06.028Z,49.60
2019-03-22T08:37:34.714Z,49.60
2019-03-22T08:40:04.427Z,49.40
2019-03-22T08:42:33.199Z,49.30
2019-03-22T08:45:01.898Z,49.20
2019-03-22T08:47:34.339Z,49.00
2019-03-22T08:50:00.988Z,48.60
2019-03-22T08:52:29.669Z,48.50
2019-03-22T08:54:58.567Z,48.60
2019-03-22T08:57:27.249Z,48.50
2019-03-22T08:59:55.964Z,48.20
2019-03-22T09:02:24.669Z,48.40
2019-03-22T09:04:53.675Z,48.30
2019-03-22T09:07:24.463Z,48.20
2019-03-22T09:09:53.143Z,48.20
2019-03-22T09:12:22.038Z,48.30
2019-03-22T09:14:50.816Z,48.40
2019-03-22T09:17:20.078Z,48.20
2019-03-22T09:19:51.054Z,48.30
2019-03-22T09:22:19.361Z,48.40
2019-03-22T09:24:48.086Z,47.80
2019-03-22T09:27:16.798Z,47.40
2019-03-22T09:29:47.375Z,47.70
2019-03-22T09:32:16.343Z,47.20
2019-03-22T09:34:45.060Z,47.20
2019-03-22T09:37:13.888Z,47.20
2019-03-22T09:39:42.671Z,47.00
2019-03-22T09:42:11.355Z,46.90
2019-03-22T09:44:44.524Z,46.80
2019-03-22T09:47:10.618Z,46.50
2019-03-22T09:49:40.861Z,46.20
2019-03-22T09:52:28.918Z,45.90
2019-03-22T09:54:57.944Z,46.00
2019-03-22T09:57:26.640Z,45.20
2019-03-22T09:59:55.340Z,44.50
2019-03-22T10:02:24.052Z,44.20
2019-03-22T10:04:52.750Z,44.30
2019-03-22T10:07:21.720Z,44.10
2019-03-22T10:09:50.474Z,44.30
2019-03-22T10:12:19.182Z,43.50
2019-03-22T10:14:47.916Z,43.20
2019-03-22T10:17:16.751Z,42.60
2019-03-22T10:19:45.595Z,42.30
2019-03-22T10:22:14.728Z,41.80
2019-03-22T10:24:43.536Z,41.40
2019-03-22T10:27:12.437Z,41.00
2019-03-22T10:29:41.119Z,40.60
2019-03-22T10:32:09.954Z,40.30
2019-03-22T10:34:39.881Z,40.50
2019-03-22T10:37:08.916Z,40.30
2019-03-22T10:39:38.043Z,39.80
2019-03-22T10:42:06.846Z,39.90
2019-03-22T10:44:35.558Z,39.30
2019-03-22T10:47:04.256Z,39.10
2019-03-22T10:49:33.075Z,39.10
2019-03-22T10:52:04.514Z,39.00
2019-03-22T10:54:32.200Z,38.60
2019-03-22T10:57:01.306Z,38.50
2019-03-22T10:59:29.979Z,38.10
2019-03-22T11:02:03.610Z,37.90
2019-03-22T11:04:29.176Z,38.00
2019-03-22T11:06:57.853Z,37.70
2019-03-22T11:09:26.568Z,37.30
2019-03-22T11:11:55.257Z,36.70
2019-03-22T11:14:23.923Z,36.80
2019-03-22T11:16:52.634Z,36.80
2019-03-22T11:19:21.306Z,36.80
2019-03-22T11:21:50.049Z,36.70
2019-03-22T11:24:18.786Z,36.80
2019-03-22T11:26:49.129Z,36.70
2019-03-22T11:29:17.811Z,35.60
2019-03-22T11:31:46.577Z,36.10
2019-03-22T11:34:15.265Z,36.30
2019-03-22T11:36:43.966Z,35.90
2019-03-22T11:39:15.702Z,36.00
2019-03-22T11:41:43.617Z,35.80
2019-03-22T11:44:12.366Z,35.80
2019-03-22T11:46:41.067Z,35.60
2019-03-22T11:49:09.744Z,35.30
2019-03-22T11:51:40.194Z,35.20
2019-03-22T11:54:08.848Z,35.10
2019-03-22T11:56:37.536Z,34.80
2019-03-22T11:59:06.227Z,34.70
2019-03-22T12:01:34.938Z,34.70
2019-03-22T12:04:03.630Z,34.10
2019-03-22T12:06:32.346Z,34.00
2019-03-22T12:09:01.124Z,34.00
2019-03-22T12:11:29.947Z,33.30
2019-03-22T12:13:58.806Z,33.40
2019-03-22T12:16:27.539Z,33.30
2019-03-22T12:18:56.424Z,33.30
2019-03-22T12:21:25.168Z,33.10
2019-03-22T12:23:53.875Z,33.00
2019-03-22T12:26:22.549Z,32.90
2019-03-22T12:28:51.256Z,32.60
2019-03-22T12:31:19.944Z,32.30
2019-03-22T12:33:48.670Z,32.50
2019-03-22T12:36:17.377Z,32.40
2019-03-22T12:38:46.347Z,32.30
2019-03-22T12:41:15.027Z,32.30
2019-03-22T12:43:43.730Z,32.00
2019-03-22T12:46:12.426Z,31.80
2019-03-22T12:48:41.171Z,31.90
2019-03-22T12:51:09.860Z,31.70
2019-03-22T12:53:38.639Z,31.60
2019-03-22T12:56:07.337Z,31.60
2019-03-22T12:58:36.143Z,31.50
2019-03-22T13:01:10.224Z,31.40
2019-03-22T13:03:38.308Z,31.40
2019-03-22T13:06:07.109Z,31.50
2019-03-22T13:08:35.805Z,31.60
2019-03-22T13:11:12.319Z,31.50
2019-03-22T13:13:41.254Z,31.30
2019-03-22T13:16:11.386Z,31.30
2019-03-22T13:18:49.786Z,31.30
2019-03-22T13:21:12.093Z,31.10
2019-03-22T13:23:40.844Z,31.00
2019-03-22T13:26:09.576Z,31.00
2019-03-22T13:28:38.422Z,30.90
2019-03-22T13:31:07.139Z,30.70
2019-03-22T13:33:35.887Z,30.50
2019-03-22T13:36:04.904Z,30.70
2019-03-22T13:38:34.967Z,30.50
2019-03-22T13:41:03.824Z,30.50
2019-03-22T13:43:32.564Z,30.20
2019-03-22T13:46:01.297Z,30.00
2019-03-22T13:48:30.018Z,30.20
2019-03-22T13:50:58.694Z,30.20
2019-03-22T13:53:27.407Z,30.00
2019-03-22T13:55:56.100Z,30.00
2019-03-22T13:58:24.812Z,30.00
2019-03-22T14:00:53.544Z,30.10
2019-03-22T14:03:22.256Z,30.40
2019-03-22T14:05:51.028Z,30.30
2019-03-22T14:08:19.754Z,30.00
2019-03-22T14:10:48.654Z,29.80
2019-03-22T14:13:17.372Z,29.90
2019-03-22T14:15:46.049Z,29.90
2019-03-22T14:18:14.731Z,29.90
2019-03-22T14:20:43.660Z,29.90
2019-03-22T14:23:12.684Z,30.00
2019-03-22T14:25:41.402Z,30.00
2019-03-22T14:28:10.072Z,30.00
2019-03-22T14:30:38.751Z,30.00
2019-03-22T14:33:13.369Z,30.00
2019-03-22T14:35:37.866Z,30.00
2019-03-22T14:38:25.843Z,30.00
2019-03-22T14:40:54.521Z,30.00
2019-03-22T14:43:23.181Z,30.00
2019-03-22T14:45:51.932Z,30.00
2019-03-22T14:48:20.586Z,29.90
2019-03-22T14:50:49.400Z,29.70
2019-03-22T14:53:18.117Z,29.60
2019-03-22T14:55:46.791Z,29.20
2019-03-22T14:58:15.492Z,29.80
2019-03-22T15:00:44.225Z,29.90
2019-03-22T15:03:25.083Z,29.60
2019-03-22T15:05:55.077Z,29.50
2019-03-22T15:08:24.202Z,29.70
2019-03-22T15:10:53.483Z,29.50
2019-03-22T15:13:29.223Z,29.20
2019-03-22T15:16:16.416Z,29.20
2019-03-22T15:18:46.664Z,29.20
2019-03-22T15:21:22.890Z,29.30
2019-03-22T15:24:02.986Z,29.20
2019-03-22T15:26:25.228Z,29.20
2019-03-22T15:29:10.744Z,29.40
2019-03-22T15:31:41.123Z,29.50
2019-03-22T15:34:17.289Z,29.30
2019-03-22T15:36:56.515Z,29.50
2019-03-22T15:39:35.605Z,29.90
2019-03-22T15:42:04.620Z,29.40
2019-03-22T15:44:33.324Z,29.50
2019-03-22T15:47:02.004Z,29.50
2019-03-22T15:49:31.502Z,29.40
2019-03-22T15:52:00.214Z,29.30
2019-03-22T15:54:28.927Z,29.00
2019-03-22T15:56:57.620Z,28.70
2019-03-22T15:59:26.483Z,28.90
2019-03-22T16:01:55.190Z,28.90
2019-03-22T16:04:23.905Z,29.10
2019-03-22T16:06:53.654Z,29.10
2019-03-22T16:09:22.330Z,29.10
2019-03-22T16:11:51.191Z,29.30
2019-03-22T16:14:20.082Z,29.50
2019-03-22T16:16:48.873Z,29.30
2019-03-22T16:19:18.620Z,29.30
2019-03-22T16:21:47.451Z,29.30
2019-03-22T16:24:16.405Z,29.20
2019-03-22T16:26:45.112Z,29.40
2019-03-22T16:29:13.799Z,29.30
2019-03-22T16:31:42.514Z,29.30
2019-03-22T16:34:11.207Z,29.40
2019-03-22T16:36:39.988Z,29.20
2019-03-22T16:39:08.951Z,29.20
2019-03-22T16:41:37.647Z,29.00
2019-03-22T16:44:06.346Z,28.90
2019-03-22T16:46:35.027Z,28.80
2019-03-22T16:49:03.709Z,28.70
2019-03-22T16:51:32.387Z,28.70
2019-03-22T16:54:01.101Z,28.60
2019-03-22T16:56:29.961Z,28.70
2019-03-22T16:58:58.663Z,28.70
2019-03-22T17:01:27.372Z,28.80
2019-03-22T17:04:04.142Z,28.70
2019-03-22T17:06:26.825Z,28.70
2019-03-22T17:08:55.549Z,28.70
2019-03-22T17:11:24.283Z,28.70
2019-03-22T17:13:52.980Z,28.80
2019-03-22T17:16:21.710Z,28.70
2019-03-22T17:18:50.452Z,28.70
2019-03-22T17:21:19.121Z,28.70
2019-03-22T17:23:47.852Z,28.90
2019-03-22T17:26:16.753Z,28.80
2019-03-22T17:28:45.497Z,28.90
2019-03-22T17:31:15.059Z,28.80
2019-03-22T17:33:43.752Z,29.00
2019-03-22T17:36:12.654Z,29.20
2019-03-22T17:38:41.402Z,29.30
2019-03-22T17:41:10.126Z,29.30
2019-03-22T17:43:38.796Z,29.30
2019-03-22T17:46:07.497Z,29.10
2019-03-22T17:48:36.178Z,29.20
2019-03-22T17:51:05.023Z,29.30
2019-03-22T17:53:33.705Z,29.10
2019-03-22T17:56:02.382Z,29.60
2019-03-22T17:58:31.073Z,29.00
2019-03-22T18:00:59.851Z,29.00
2019-03-22T18:03:28.577Z,29.00
2019-03-22T18:05:57.271Z,29.20
2019-03-22T18:08:26.026Z,29.20
2019-03-22T18:10:54.767Z,29.20
2019-03-22T18:13:42.748Z,29.10
2019-03-22T18:16:11.491Z,29.00
2019-03-22T18:18:40.184Z,29.00
2019-03-22T18:21:08.868Z,29.00
2019-03-22T18:23:37.578Z,29.00
2019-03-22T18:26:08.203Z,29.00
2019-03-22T18:28:36.912Z,28.90
2019-03-22T18:31:05.616Z,28.80
2019-03-22T18:33:34.318Z,28.70
2019-03-22T18:36:03.208Z,28.80
2019-03-22T18:38:33.013Z,28.70
2019-03-22T18:41:02.622Z,28.70
2019-03-22T18:43:32.365Z,28.90
2019-03-22T18:46:01.110Z,29.10
2019-03-22T18:48:29.794Z,29.20
2019-03-22T18:50:58.668Z,29.10
2019-03-22T18:53:27.387Z,29.20
2019-03-22T18:55:56.155Z,29.40
2019-03-22T18:58:25.391Z,29.50
2019-03-22T19:00:56.023Z,29.50
2019-03-22T19:03:26.510Z,29.50
2019-03-22T19:05:55.171Z,29.50
2019-03-22T19:08:23.970Z,29.60
2019-03-22T19:10:52.667Z,29.70
2019-03-22T19:13:30.399Z,29.80
2019-03-22T19:15:53.452Z,29.80
2019-03-22T19:18:23.018Z,29.80
2019-03-22T19:20:51.791Z,29.70
2019-03-22T19:23:20.979Z,29.90
2019-03-22T19:25:51.230Z,29.90
2019-03-22T19:28:20.002Z,30.00
2019-03-22T19:30:48.741Z,30.00
2019-03-22T19:33:17.466Z,30.00
2019-03-22T19:35:46.201Z,30.00
2019-03-22T19:38:14.973Z,30.20
2019-03-22T19:40:43.646Z,30.30
2019-03-22T19:43:12.463Z,30.50
2019-03-22T19:45:41.222Z,30.40
2019-03-22T19:48:10.131Z,30.60
2019-03-22T19:50:38.825Z,30.60
2019-03-22T19:53:07.552Z,30.80
2019-03-22T19:55:36.324Z,31.20
2019-03-22T19:58:05.026Z,31.20
2019-03-22T20:00:33.774Z,30.90
2019-03-22T20:03:02.454Z,30.80
2019-03-22T20:05:32.663Z,31.50
2019-03-22T20:08:02.312Z,31.90
2019-03-22T20:10:31.191Z,31.70
2019-03-22T20:12:59.903Z,31.80
2019-03-22T20:15:36.328Z,31.80
2019-03-22T20:18:05.107Z,31.60
2019-03-22T20:20:36.092Z,31.50
2019-03-22T20:23:04.261Z,31.60
2019-03-22T20:25:32.928Z,32.10
2019-03-22T20:28:01.658Z,32.20
2019-03-22T20:30:30.370Z,32.10
2019-03-22T20:32:59.060Z,32.00
2019-03-22T20:35:27.759Z,31.80
2019-03-22T20:37:56.491Z,31.60
2019-03-22T20:40:25.195Z,31.60
2019-03-22T20:42:53.924Z,31.60
2019-03-22T20:45:24.341Z,31.40
2019-03-22T20:47:53.053Z,31.50
2019-03-22T20:50:21.775Z,31.70
2019-03-22T20:52:51.128Z,31.40
2019-03-22T20:55:19.875Z,31.80
2019-03-22T20:57:48.695Z,32.00
2019-03-22T21:00:17.874Z,31.80
2019-03-22T21:02:46.622Z,32.00
2019-03-22T21:05:26.092Z,31.90
2019-03-22T21:07:46.374Z,32.30
2019-03-22T21:10:15.055Z,32.30
2019-03-22T21:12:43.772Z,32.60
2019-03-22T21:15:23.528Z,32.40
2019-03-22T21:17:43.294Z,32.40
2019-03-22T21:20:12.397Z,32.50
2019-03-22T21:22:41.210Z,32.60
2019-03-22T21:25:11.199Z,32.70
2019-03-22T21:27:39.918Z,32.30
2019-03-22T21:30:13.291Z,32.30
2019-03-22T21:32:45.587Z,32.30
2019-03-22T21:35:21.873Z,32.40
2019-03-22T21:37:43.074Z,32.60
2019-03-22T21:40:12.901Z,32.30
2019-03-22T21:42:41.609Z,32.60
2019-03-22T21:45:12.332Z,33.20
2019-03-22T21:47:41.038Z,32.20
2019-03-22T21:50:11.218Z,32.40
2019-03-22T21:52:39.900Z,33.10
2019-03-22T21:55:09.081Z,32.40
2019-03-22T21:57:37.782Z,32.20
2019-03-22T22:00:11.830Z,31.90
2019-03-22T22:02:40.692Z,31.80
2019-03-22T22:05:09.597Z,31.90
2019-03-22T22:07:38.297Z,31.90
2019-03-22T22:10:09.083Z,31.90
2019-03-22T22:12:38.010Z,31.80
2019-03-22T22:15:12.192Z,32.40
2019-03-22T22:17:44.319Z,31.70
2019-03-22T22:20:13.926Z,31.70
2019-03-22T22:22:42.603Z,31.70
2019-03-22T22:25:11.276Z,31.50
2019-03-22T22:27:40.935Z,31.40
2019-03-22T22:30:11.030Z,31.50
2019-03-22T22:32:39.696Z,31.50
2019-03-22T22:35:09.318Z,31.60
2019-03-22T22:37:38.015Z,31.60
2019-03-22T22:40:11.357Z,31.40
2019-03-22T22:42:40.063Z,31.50
2019-03-22T22:45:12.597Z,31.60
2019-03-22T22:47:41.362Z,31.10
2019-03-22T22:50:13.359Z,31.50
2019-03-22T22:52:42.205Z,31.40
2019-03-22T22:55:11.543Z,31.60
2019-03-22T22:57:40.315Z,31.70
2019-03-22T23:00:17.199Z,31.40
2019-03-22T23:02:46.175Z,31.40
2019-03-22T23:05:15.085Z,31.60
2019-03-22T23:07:43.738Z,31.60
2019-03-22T23:10:12.871Z,31.70
2019-03-22T23:12:42.231Z,31.60
2019-03-22T23:15:11.289Z,31.70
2019-03-22T23:17:40.011Z,31.80
2019-03-22T23:20:10.398Z,31.70
2019-03-22T23:22:39.090Z,31.60
2019-03-22T23:25:08.085Z,31.70
2019-03-22T23:27:37.674Z,32.20
2019-03-22T23:30:08.907Z,31.90
2019-03-22T23:32:37.718Z,31.80
2019-03-22T23:35:07.581Z,31.80
2019-03-22T23:37:36.430Z,31.90
2019-03-22T23:40:06.569Z,31.90
2019-03-22T23:42:35.272Z,31.70
2019-03-22T23:45:06.052Z,32.00
2019-03-22T23:47:35.042Z,31.80
2019-03-22T23:50:05.580Z,31.80
2019-03-22T23:52:34.286Z,32.20
2019-03-22T23:55:02.985Z,32.10
2019-03-22T23:57:31.743Z,32.20
